Time;durP1;ratioP1;P1;durP2;ratioP2;P2;SDS_P1;SDS_P2;PMS_P1;PMS_P2;Temp;Humidity;BMP_temperature;BMP_pressure;BME280_temperature;BME280_humidity;BME280_pressure;Samples;Min_cycle;Max_cycle;Signal;HPM_P1;HPM_P2
2021/08/21 00:00:14;;;;;;;27.45;24.05;;;;;;;;;;4998707;28;20182;-75
2021/08/21 00:02:40;;;;;;;29.63;23.92;;;;;;;;;;5006860;28;20221;-75
2021/08/21 00:05:06;;;;;;;27.65;24.08;;;;;;;;;;4997703;28;20194;-75
2021/08/21 00:07:32;;;;;;;26.67;23.27;;;;;;;;;;5006420;28;20565;-75
2021/08/21 00:09:58;;;;;;;28.52;22.52;;;;;;;;;;4998354;28;20194;-75
2021/08/21 00:12:24;;;;;;;30.65;24.23;;;;;;;;;;5005130;28;20269;-75
2021/08/21 00:14:50;;;;;;;32.42;25.52;;;;;;;;;;4996118;28;20317;-75
2021/08/21 00:17:15;;;;;;;31.45;26.15;;;;;;;;;;5003926;28;20539;-75
2021/08/21 00:19:40;;;;;;;31.55;26.35;;;;;;;;;;4999583;28;21540;-75
2021/08/21 00:22:06;;;;;;;30.70;25.75;;;;;;;;;;5004064;28;20535;-75
2021/08/21 00:24:32;;;;;;;30.55;25.77;;;;;;;;;;5004004;28;20245;-75
2021/08/21 00:26:57;;;;;;;29.35;24.73;;;;;;;;;;5002775;28;20186;-75
2021/08/21 00:29:22;;;;;;;36.95;26.95;;;;;;;;;;5006635;28;20584;-75
2021/08/21 00:31:48;;;;;;;32.15;26.90;;;;;;;;;;4992627;28;20252;-75
2021/08/21 00:34:13;;;;;;;27.92;24.10;;;;;;;;;;5007228;28;20194;-75
2021/08/21 00:36:38;;;;;;;33.13;25.90;;;;;;;;;;4994566;28;20183;-75
2021/08/21 00:39:04;;;;;;;29.20;24.15;;;;;;;;;;5007722;28;20246;-75
2021/08/21 00:41:35;;;;;;;31.77;25.15;;;;;;;;;;4995197;28;20669;-75
2021/08/21 00:44:01;;;;;;;31.73;26.02;;;;;;;;;;5005265;28;20339;-75
2021/08/21 00:46:26;;;;;;;31.88;25.30;;;;;;;;;;4997892;28;20207;-75
2021/08/21 00:48:52;;;;;;;28.80;24.48;;;;;;;;;;5006015;28;20206;-75
2021/08/21 00:51:17;;;;;;;27.23;23.10;;;;;;;;;;4994012;28;20210;-75
2021/08/21 00:53:42;;;;;;;28.25;23.33;;;;;;;;;;5003035;28;20281;-75
2021/08/21 00:56:08;;;;;;;31.42;23.38;;;;;;;;;;5001025;28;20249;-75
2021/08/21 00:58:34;;;;;;;28.42;23.10;;;;;;;;;;4993619;28;20214;-75
2021/08/21 01:01:00;;;;;;;29.55;22.83;;;;;;;;;;5005997;28;20194;-75
2021/08/21 01:03:25;;;;;;;27.77;22.85;;;;;;;;;;4996618;28;20645;-75
2021/08/21 01:05:51;;;;;;;26.42;21.45;;;;;;;;;;5008037;28;20277;-75
2021/08/21 01:08:17;;;;;;;25.58;20.80;;;;;;;;;;4993894;28;20210;-75
2021/08/21 01:10:43;;;;;;;27.00;21.27;;;;;;;;;;5006801;28;20187;-75
2021/08/21 01:13:08;;;;;;;26.10;20.77;;;;;;;;;;4997493;28;20187;-75
2021/08/21 01:15:34;;;;;;;23.50;20.40;;;;;;;;;;5008027;28;20237;-75
2021/08/21 01:18:01;;;;;;;24.98;19.90;;;;;;;;;;4994914;28;20226;-75
2021/08/21 01:20:28;;;;;;;31.95;21.08;;;;;;;;;;5005478;28;20194;-75
2021/08/21 01:22:53;;;;;;;25.83;21.40;;;;;;;;;;4995896;28;20270;-75
2021/08/21 01:25:23;;;;;;;28.05;21.60;;;;;;;;;;5005683;28;20298;-75
2021/08/21 01:27:49;;;;;;;37.75;25.38;;;;;;;;;;4994733;28;20181;-75
2021/08/21 01:30:15;;;;;;;45.00;25.80;;;;;;;;;;5003593;28;20198;-75
2021/08/21 01:32:40;;;;;;;51.75;26.70;;;;;;;;;;5003205;28;20707;-75
2021/08/21 01:35:07;;;;;;;83.47;27.63;;;;;;;;;;4998792;28;20186;-75
2021/08/21 01:37:33;;;;;;;180.55;33.42;;;;;;;;;;5003163;28;20211;-75
2021/08/21 01:39:58;;;;;;;76.13;28.27;;;;;;;;;;5004661;28;20586;-75
2021/08/21 01:42:25;;;;;;;159.68;32.38;;;;;;;;;;5003724;28;20278;-75
2021/08/21 01:44:50;;;;;;;65.28;27.40;;;;;;;;;;4996725;28;20220;-75
2021/08/21 01:47:16;;;;;;;59.40;25.80;;;;;;;;;;5000448;28;20190;-75
2021/08/21 01:49:43;;;;;;;48.63;26.52;;;;;;;;;;4998106;28;20206;-75
2021/08/21 01:52:10;;;;;;;107.30;30.30;;;;;;;;;;5004308;28;20262;-75
2021/08/21 01:54:37;;;;;;;75.72;26.83;;;;;;;;;;4995573;28;20195;-76
2021/08/21 01:57:05;;;;;;;54.58;25.50;;;;;;;;;;5002264;28;20305;-76
2021/08/21 01:59:35;;;;;;;53.67;25.05;;;;;;;;;;4998777;28;20226;-75
2021/08/21 02:02:01;;;;;;;45.78;23.85;;;;;;;;;;5002405;28;20209;-75
2021/08/21 02:04:28;;;;;;;45.75;23.25;;;;;;;;;;5008768;28;20201;-75
2021/08/21 02:06:54;;;;;;;55.90;23.75;;;;;;;;;;4999767;28;20306;-75
2021/08/21 02:09:23;;;;;;;35.97;22.38;;;;;;;;;;5006749;28;20646;-75
2021/08/21 02:11:49;;;;;;;54.78;23.13;;;;;;;;;;4998189;28;20601;-75
2021/08/21 02:14:17;;;;;;;58.67;23.60;;;;;;;;;;5009007;28;20552;-75
2021/08/21 02:16:43;;;;;;;47.80;22.40;;;;;;;;;;4996396;28;20191;-75
2021/08/21 02:19:09;;;;;;;87.32;23.25;;;;;;;;;;5005216;28;20215;-75
2021/08/21 02:21:34;;;;;;;42.20;21.55;;;;;;;;;;4999885;28;20260;-76
2021/08/21 02:24:00;;;;;;;47.10;20.90;;;;;;;;;;5007866;28;20198;-73
2021/08/21 02:26:27;;;;;;;34.78;19.10;;;;;;;;;;5001415;28;20716;-75
2021/08/21 02:28:53;;;;;;;40.78;20.42;;;;;;;;;;5003366;28;20694;-75
2021/08/21 02:31:18;;;;;;;28.48;19.17;;;;;;;;;;4999524;28;20191;-76
2021/08/21 02:33:44;;;;;;;67.90;22.13;;;;;;;;;;5007971;28;20195;-75
2021/08/21 02:36:09;;;;;;;95.32;22.98;;;;;;;;;;5005758;28;20179;-75
2021/08/21 02:38:35;;;;;;;25.33;18.45;;;;;;;;;;5000632;28;20234;-75
2021/08/21 02:41:00;;;;;;;30.98;19.60;;;;;;;;;;5008006;28;20187;-75
2021/08/21 02:43:25;;;;;;;37.35;20.55;;;;;;;;;;4999066;28;20193;-75
2021/08/21 02:45:51;;;;;;;28.75;19.58;;;;;;;;;;5009604;28;20171;-76
2021/08/21 02:48:16;;;;;;;63.65;23.23;;;;;;;;;;4999598;28;20206;-75
2021/08/21 02:50:42;;;;;;;39.40;19.83;;;;;;;;;;5007645;28;20225;-75
2021/08/21 02:53:08;;;;;;;27.77;18.27;;;;;;;;;;4997128;28;20190;-75
2021/08/21 02:55:33;;;;;;;47.63;20.95;;;;;;;;;;5005051;28;20235;-75
2021/08/21 02:57:58;;;;;;;59.67;20.30;;;;;;;;;;4995351;28;20214;-76
2021/08/21 03:00:24;;;;;;;24.63;16.65;;;;;;;;;;4999730;28;20183;-76
2021/08/21 03:02:49;;;;;;;29.50;17.45;;;;;;;;;;4998411;28;20339;-75
2021/08/21 03:05:15;;;;;;;37.45;19.27;;;;;;;;;;5007081;28;20191;-75
2021/08/21 03:07:40;;;;;;;47.05;18.17;;;;;;;;;;5004968;28;20705;-76
2021/08/21 03:10:06;;;;;;;48.45;20.42;;;;;;;;;;4997874;28;20194;-75
2021/08/21 03:12:32;;;;;;;30.55;18.80;;;;;;;;;;5000960;28;20247;-76
2021/08/21 03:14:58;;;;;;;32.42;18.42;;;;;;;;;;4996330;28;20190;-75
2021/08/21 03:17:24;;;;;;;25.88;17.00;;;;;;;;;;5004881;28;20237;-75
2021/08/21 03:19:49;;;;;;;35.35;18.40;;;;;;;;;;4996729;28;20602;-75
2021/08/21 03:22:15;;;;;;;47.63;20.33;;;;;;;;;;5005142;28;20187;-75
2021/08/21 03:24:40;;;;;;;38.58;19.15;;;;;;;;;;4996158;28;20195;-75
2021/08/21 03:27:06;;;;;;;56.25;19.88;;;;;;;;;;4999483;28;20760;-75
2021/08/21 03:29:31;;;;;;;75.93;22.13;;;;;;;;;;4995834;28;20191;-75
2021/08/21 03:31:56;;;;;;;41.33;19.90;;;;;;;;;;5013456;28;20198;-75
2021/08/21 03:34:25;;;;;;;40.58;19.30;;;;;;;;;;4995641;28;20179;-75
2021/08/21 03:36:54;;;;;;;45.97;19.23;;;;;;;;;;5004400;28;20644;-75
2021/08/21 03:39:19;;;;;;;45.08;18.38;;;;;;;;;;5006063;28;20256;-75
2021/08/21 03:41:45;;;;;;;51.60;18.73;;;;;;;;;;4995490;28;20187;-75
2021/08/21 03:44:11;;;;;;;40.92;20.27;;;;;;;;;;5005133;28;20191;-75
2021/08/21 03:46:36;;;;;;;33.67;20.70;;;;;;;;;;4997226;28;20192;-75
2021/08/21 03:49:02;;;;;;;38.22;19.80;;;;;;;;;;5006960;28;20183;-75
2021/08/21 03:51:27;;;;;;;41.70;19.73;;;;;;;;;;4994808;28;20209;-76
2021/08/21 03:53:53;;;;;;;33.33;19.45;;;;;;;;;;5008088;28;20668;-75
2021/08/21 03:56:18;;;;;;;37.00;19.50;;;;;;;;;;4997235;28;20892;-75
2021/08/21 03:58:43;;;;;;;52.38;20.50;;;;;;;;;;5006727;28;20217;-75
2021/08/21 04:01:09;;;;;;;42.35;18.85;;;;;;;;;;4998205;28;20214;-75
2021/08/21 04:03:35;;;;;;;42.47;18.90;;;;;;;;;;5005061;28;20191;-75
2021/08/21 04:06:01;;;;;;;65.28;18.45;;;;;;;;;;4996306;28;20642;-75
2021/08/21 04:08:26;;;;;;;61.63;20.75;;;;;;;;;;5004929;28;20194;-76
2021/08/21 04:10:51;;;;;;;33.15;19.52;;;;;;;;;;5006098;28;20610;-75
2021/08/21 04:13:17;;;;;;;42.35;20.48;;;;;;;;;;4997932;28;20187;-75
2021/08/21 04:15:42;;;;;;;31.70;20.38;;;;;;;;;;5004205;28;20195;-75
2021/08/21 04:18:07;;;;;;;44.42;20.90;;;;;;;;;;4994251;28;20202;-75
2021/08/21 04:20:33;;;;;;;44.05;20.58;;;;;;;;;;5004801;28;20213;-76
2021/08/21 04:22:58;;;;;;;37.88;20.00;;;;;;;;;;4998449;28;20198;-76
2021/08/21 04:25:23;;;;;;;38.15;19.00;;;;;;;;;;5003159;28;20198;-75
2021/08/21 04:27:50;;;;;;;40.28;19.58;;;;;;;;;;4996509;28;20237;-76
2021/08/21 04:30:16;;;;;;;33.45;18.65;;;;;;;;;;5004425;28;20249;-76
2021/08/21 04:32:41;;;;;;;26.70;17.92;;;;;;;;;;4996964;28;20742;-76
2021/08/21 04:35:07;;;;;;;36.30;17.63;;;;;;;;;;5005551;28;20269;-75
2021/08/21 04:37:32;;;;;;;63.22;18.92;;;;;;;;;;5006815;28;20195;-75
2021/08/21 04:39:57;;;;;;;30.20;17.83;;;;;;;;;;5004435;28;20187;-75
2021/08/21 04:42:23;;;;;;;32.25;18.33;;;;;;;;;;5005971;28;20225;-76
2021/08/21 04:44:48;;;;;;;32.42;17.98;;;;;;;;;;4995984;28;20663;-75
2021/08/21 04:47:13;;;;;;;22.48;17.13;;;;;;;;;;5007033;28;20186;-75
2021/08/21 04:49:39;;;;;;;42.10;18.17;;;;;;;;;;4994403;28;20670;-76
2021/08/21 04:52:04;;;;;;;33.15;17.25;;;;;;;;;;5002664;28;20178;-76
2021/08/21 04:54:29;;;;;;;62.78;19.50;;;;;;;;;;4995602;28;20281;-76
2021/08/21 04:56:55;;;;;;;49.08;20.27;;;;;;;;;;5004770;28;20218;-77
2021/08/21 04:59:20;;;;;;;34.45;19.13;;;;;;;;;;4990789;28;20215;-76
2021/08/21 05:01:45;;;;;;;34.22;19.02;;;;;;;;;;5004302;28;20178;-76
2021/08/21 05:04:11;;;;;;;47.83;21.05;;;;;;;;;;4987375;28;20742;-75
2021/08/21 05:06:36;;;;;;;32.75;19.58;;;;;;;;;;4998257;28;20204;-75
2021/08/21 05:09:04;;;;;;;46.85;19.13;;;;;;;;;;4996147;28;20622;-75
2021/08/21 05:11:30;;;;;;;36.75;19.15;;;;;;;;;;5004958;28;20273;-76
2021/08/21 05:13:55;;;;;;;38.28;18.10;;;;;;;;;;5000144;28;20305;-76
2021/08/21 05:16:20;;;;;;;31.08;18.77;;;;;;;;;;4991519;28;20186;-76
2021/08/21 05:18:53;;;;;;;38.30;17.23;;;;;;;;;;4999864;28;20214;-75
2021/08/21 05:21:30;;;;;;;24.10;16.45;;;;;;;;;;4989971;28;20580;-76
2021/08/21 05:23:56;;;;;;;28.23;16.50;;;;;;;;;;4999521;28;20193;-75
2021/08/21 05:26:21;;;;;;;50.15;15.20;;;;;;;;;;4992608;28;20230;-75
2021/08/21 05:28:47;;;;;;;52.08;15.65;;;;;;;;;;5000408;28;20175;-75
2021/08/21 05:31:12;;;;;;;16.98;14.43;;;;;;;;;;4988008;28;20197;-75
2021/08/21 05:33:38;;;;;;;23.65;14.75;;;;;;;;;;4998340;28;20203;-75
2021/08/21 05:36:03;;;;;;;21.27;13.43;;;;;;;;;;4988548;28;20549;-75
2021/08/21 05:38:29;;;;;;;40.75;14.00;;;;;;;;;;4998353;28;20675;-75
2021/08/21 05:40:54;;;;;;;26.85;14.65;;;;;;;;;;4995903;28;20551;-75
2021/08/21 05:43:19;;;;;;;24.60;10.93;;;;;;;;;;5003797;28;20612;-75
2021/08/21 05:45:45;;;;;;;20.08;13.63;;;;;;;;;;5004642;28;20189;-75
2021/08/21 05:48:10;;;;;;;28.75;13.23;;;;;;;;;;4994204;28;20187;-75
2021/08/21 05:50:35;;;;;;;23.63;12.95;;;;;;;;;;5002644;28;20298;-75
2021/08/21 05:53:01;;;;;;;49.10;13.00;;;;;;;;;;4992685;28;20238;-75
2021/08/21 05:55:27;;;;;;;29.70;13.25;;;;;;;;;;5007982;28;20230;-75
2021/08/21 05:57:52;;;;;;;45.25;13.60;;;;;;;;;;4996959;28;20630;-75
2021/08/21 06:00:17;;;;;;;40.22;12.55;;;;;;;;;;5010328;28;20680;-76
2021/08/21 06:02:43;;;;;;;44.05;12.35;;;;;;;;;;4995960;28;20186;-75
2021/08/21 06:05:11;;;;;;;13.57;10.93;;;;;;;;;;5002308;28;20214;-74
2021/08/21 06:07:36;;;;;;;18.67;11.27;;;;;;;;;;4993954;28;20187;-74
2021/08/21 06:10:04;;;;;;;12.40;11.18;;;;;;;;;;5003929;28;20309;-74
2021/08/21 06:12:29;;;;;;;15.25;11.15;;;;;;;;;;4997346;28;20233;-74
2021/08/21 06:14:55;;;;;;;12.10;10.80;;;;;;;;;;5001586;28;20191;-74
2021/08/21 06:17:20;;;;;;;12.45;10.75;;;;;;;;;;5000871;28;20187;-74
2021/08/21 06:19:45;;;;;;;12.48;10.77;;;;;;;;;;4992441;28;20171;-74
2021/08/21 06:22:11;;;;;;;12.63;11.32;;;;;;;;;;5004370;28;20191;-74
2021/08/21 06:24:36;;;;;;;12.63;10.25;;;;;;;;;;4995231;28;20183;-74
2021/08/21 06:27:02;;;;;;;12.55;11.25;;;;;;;;;;5004833;28;20195;-74
2021/08/21 06:29:29;;;;;;;11.73;10.60;;;;;;;;;;5010813;28;20198;-74
2021/08/21 06:31:54;;;;;;;12.23;10.80;;;;;;;;;;5005939;28;20186;-74
2021/08/21 06:34:19;;;;;;;12.57;11.27;;;;;;;;;;4998734;28;20608;-74
2021/08/21 06:36:45;;;;;;;20.58;11.00;;;;;;;;;;5005643;28;20333;-75
2021/08/21 06:39:10;;;;;;;14.60;11.25;;;;;;;;;;4997903;28;20222;-75
2021/08/21 06:41:35;;;;;;;26.98;12.52;;;;;;;;;;5001085;28;20245;-75
2021/08/21 06:44:02;;;;;;;14.50;11.98;;;;;;;;;;4989910;28;20326;-75
2021/08/21 06:46:27;;;;;;;18.55;11.85;;;;;;;;;;5002884;28;20264;-75
2021/08/21 06:48:53;;;;;;;20.20;11.05;;;;;;;;;;4310005;28;10000692;-75
2021/08/21 06:51:18;;;;;;;13.60;11.25;;;;;;;;;;4990250;28;20234;-75
2021/08/21 06:53:43;;;;;;;13.40;11.30;;;;;;;;;;5001013;28;20623;-75
2021/08/21 06:56:09;;;;;;;14.10;12.70;;;;;;;;;;4991082;28;20235;-75
2021/08/21 06:58:34;;;;;;;22.55;12.93;;;;;;;;;;4996828;28;20557;-75
2021/08/21 07:00:59;;;;;;;44.08;12.93;;;;;;;;;;4985959;28;20193;-75
2021/08/21 07:03:25;;;;;;;138.65;15.48;;;;;;;;;;5001976;28;20199;-76
2021/08/21 07:05:51;;;;;;;29.30;13.48;;;;;;;;;;4984804;28;21631;-76
2021/08/21 07:08:16;;;;;;;64.53;15.15;;;;;;;;;;4994922;28;20179;-76
2021/08/21 07:10:42;;;;;;;17.00;13.63;;;;;;;;;;4990600;28;20329;-75
2021/08/21 07:13:08;;;;;;;60.47;13.82;;;;;;;;;;4999453;28;20229;-75
2021/08/21 07:15:33;;;;;;;17.58;12.98;;;;;;;;;;4988204;28;20281;-75
2021/08/21 07:17:59;;;;;;;66.22;16.63;;;;;;;;;;5000879;28;20243;-77
2021/08/21 07:20:24;;;;;;;14.18;12.68;;;;;;;;;;5001137;28;20174;-75
2021/08/21 07:22:50;;;;;;;15.45;13.23;;;;;;;;;;4994710;28;20202;-75
2021/08/21 07:25:15;;;;;;;14.95;13.45;;;;;;;;;;4996513;28;20264;-76
2021/08/21 07:27:41;;;;;;;15.25;13.65;;;;;;;;;;4988283;28;20190;-75
2021/08/21 07:30:07;;;;;;;20.40;13.48;;;;;;;;;;5002484;28;20187;-75
2021/08/21 07:32:32;;;;;;;30.23;14.82;;;;;;;;;;4987217;28;20238;-76
2021/08/21 07:34:57;;;;;;;16.50;14.50;;;;;;;;;;5000754;28;20179;-75
2021/08/21 07:37:23;;;;;;;17.83;15.13;;;;;;;;;;4987473;28;20189;-74
2021/08/21 07:39:48;;;;;;;17.00;15.20;;;;;;;;;;5000810;28;20698;-75
2021/08/21 07:42:13;;;;;;;18.75;16.33;;;;;;;;;;4995472;28;20665;-76
2021/08/21 07:44:39;;;;;;;19.85;16.38;;;;;;;;;;5003660;28;20245;-76
2021/08/21 07:47:04;;;;;;;19.52;16.30;;;;;;;;;;4996345;28;20260;-75
2021/08/21 07:49:30;;;;;;;16.88;15.02;;;;;;;;;;5004819;28;20190;-74
2021/08/21 07:51:55;;;;;;;18.27;16.33;;;;;;;;;;5007356;28;20190;-74
2021/08/21 07:54:20;;;;;;;20.85;15.90;;;;;;;;;;4995797;28;20190;-73
2021/08/21 07:56:46;;;;;;;19.23;15.48;;;;;;;;;;5003661;28;20276;-73
2021/08/21 07:59:11;;;;;;;20.08;15.00;;;;;;;;;;4989121;28;20226;-73
2021/08/21 08:01:36;;;;;;;20.45;16.70;;;;;;;;;;5002460;28;20191;-73
2021/08/21 08:04:02;;;;;;;22.63;17.40;;;;;;;;;;4993584;28;20663;-74
2021/08/21 08:06:27;;;;;;;20.92;16.50;;;;;;;;;;5002799;28;20210;-74
2021/08/21 08:08:52;;;;;;;18.42;16.33;;;;;;;;;;4992673;28;20182;-74
2021/08/21 08:11:18;;;;;;;20.55;17.98;;;;;;;;;;5004046;28;20221;-74
2021/08/21 08:13:43;;;;;;;20.77;18.20;;;;;;;;;;4992552;28;20664;-74
2021/08/21 08:16:08;;;;;;;23.38;18.60;;;;;;;;;;5004328;28;20891;-73
2021/08/21 08:18:34;;;;;;;22.67;19.88;;;;;;;;;;4991625;28;20572;-74
2021/08/21 08:20:59;;;;;;;23.85;19.67;;;;;;;;;;5002854;28;20187;-74
2021/08/21 08:23:24;;;;;;;23.38;19.20;;;;;;;;;;5001711;28;20212;-74
2021/08/21 08:25:50;;;;;;;25.75;20.20;;;;;;;;;;4997243;28;20602;-74
2021/08/21 08:28:15;;;;;;;24.08;20.50;;;;;;;;;;5000519;28;20175;-74
2021/08/21 08:30:42;;;;;;;26.98;21.40;;;;;;;;;;4996427;28;20274;-74
2021/08/21 08:33:07;;;;;;;24.23;20.67;;;;;;;;;;5001628;28;20210;-73
2021/08/21 08:35:33;;;;;;;26.63;21.73;;;;;;;;;;4977270;28;20210;-74
2021/08/21 08:37:58;;;;;;;26.80;21.83;;;;;;;;;;5006263;28;20261;-75
2021/08/21 08:40:25;;;;;;;27.15;22.00;;;;;;;;;;4994938;28;20229;-73
2021/08/21 08:42:51;;;;;;;25.52;19.70;;;;;;;;;;5003317;28;20190;-73
2021/08/21 08:45:16;;;;;;;25.73;21.13;;;;;;;;;;4999922;28;20602;-73
2021/08/21 08:47:42;;;;;;;27.15;21.05;;;;;;;;;;5007895;28;20208;-73
2021/08/21 08:50:10;;;;;;;24.40;21.48;;;;;;;;;;5005596;28;20186;-75
2021/08/21 08:52:36;;;;;;;27.75;20.17;;;;;;;;;;5000689;28;20179;-73
2021/08/21 08:55:03;;;;;;;28.95;21.15;;;;;;;;;;5001112;28;20540;-73
2021/08/21 08:57:39;;;;;;;26.15;20.35;;;;;;;;;;4997520;28;20218;-73
2021/08/21 09:00:17;;;;;;;22.48;20.10;;;;;;;;;;5004013;28;20252;-73
2021/08/21 09:02:50;;;;;;;25.55;20.48;;;;;;;;;;4994948;28;20202;-73
2021/08/21 09:05:17;;;;;;;23.50;20.52;;;;;;;;;;5003630;28;20650;-73
2021/08/21 09:07:51;;;;;;;24.73;20.67;;;;;;;;;;4999516;28;20614;-74
2021/08/21 09:10:29;;;;;;;23.02;20.30;;;;;;;;;;5003323;28;20181;-72
2021/08/21 09:13:06;;;;;;;24.83;20.35;;;;;;;;;;4995486;28;20213;-77
2021/08/21 09:15:35;;;;;;;22.95;20.50;;;;;;;;;;5004743;28;20201;-72
2021/08/21 09:18:14;;;;;;;21.17;18.48;;;;;;;;;;4995999;28;20457;-72
2021/08/21 09:20:48;;;;;;;24.73;18.95;;;;;;;;;;4995405;28;20554;-73
2021/08/21 09:23:38;;;;;;;22.10;18.67;;;;;;;;;;4995277;28;20202;-73
2021/08/21 09:26:07;;;;;;;21.98;19.48;;;;;;;;;;5001138;28;20195;-72
2021/08/21 09:28:34;;;;;;;21.63;18.40;;;;;;;;;;4991745;28;20245;-72
2021/08/21 09:31:09;;;;;;;19.75;16.88;;;;;;;;;;5001914;28;20210;-74
2021/08/21 09:33:40;;;;;;;20.83;17.00;;;;;;;;;;4995341;28;20194;-75
2021/08/21 09:36:11;;;;;;;19.70;17.50;;;;;;;;;;5003500;28;20768;-72
2021/08/21 09:38:37;;;;;;;20.63;18.48;;;;;;;;;;4998266;28;20229;-73
2021/08/21 09:41:09;;;;;;;14.68;12.90;;;;;;;;;;5005053;28;20191;-73
2021/08/21 09:43:36;;;;;;;15.27;13.55;;;;;;;;;;4994223;28;20278;-71
2021/08/21 09:46:10;;;;;;;17.77;14.25;;;;;;;;;;5017503;28;20197;-71
2021/08/21 09:48:55;;;;;;;15.88;13.57;;;;;;;;;;4995597;28;20183;-71
2021/08/21 09:51:42;;;;;;;15.60;13.43;;;;;;;;;;5001441;28;20181;-72
2021/08/21 09:54:19;;;;;;;16.58;14.35;;;;;;;;;;4994336;28;20651;-72
2021/08/21 09:56:52;;;;;;;15.80;14.07;;;;;;;;;;5007513;28;20234;-72
2021/08/21 09:59:17;;;;;;;17.02;14.00;;;;;;;;;;4993597;28;20217;-73
2021/08/21 10:01:45;;;;;;;17.45;14.65;;;;;;;;;;5002552;28;20187;-73
2021/08/21 10:04:10;;;;;;;16.00;14.30;;;;;;;;;;4990987;28;20304;-72
2021/08/21 10:06:37;;;;;;;14.20;11.75;;;;;;;;;;5000037;28;20298;-73
2021/08/21 10:09:07;;;;;;;13.98;11.88;;;;;;;;;;5000914;28;20178;-73
2021/08/21 10:11:33;;;;;;;12.40;11.13;;;;;;;;;;4992920;28;20237;-72
2021/08/21 10:13:59;;;;;;;13.57;10.05;;;;;;;;;;5003984;28;20634;-72
2021/08/21 10:16:25;;;;;;;15.55;11.00;;;;;;;;;;4990644;28;20194;-72
2021/08/21 10:18:53;;;;;;;12.40;10.63;;;;;;;;;;5003634;28;20218;-72
2021/08/21 10:21:19;;;;;;;11.95;10.43;;;;;;;;;;4993904;28;20209;-72
2021/08/21 10:23:46;;;;;;;13.60;9.27;;;;;;;;;;5003282;28;20637;-72
2021/08/21 10:26:27;;;;;;;15.55;10.77;;;;;;;;;;4996414;28;20209;-72
2021/08/21 10:28:53;;;;;;;11.18;9.52;;;;;;;;;;4998153;28;20183;-72
2021/08/21 10:31:43;;;;;;;11.00;9.23;;;;;;;;;;4997114;28;20574;-72
2021/08/21 10:34:10;;;;;;;13.88;10.30;;;;;;;;;;5005316;28;20558;-72
2021/08/21 10:36:41;;;;;;;14.75;10.02;;;;;;;;;;4998406;28;20183;-73
2021/08/21 10:39:35;;;;;;;11.32;9.02;;;;;;;;;;5003381;28;20716;-71
2021/08/21 10:42:23;;;;;;;13.38;9.80;;;;;;;;;;4996823;28;20183;-72
2021/08/21 10:44:50;;;;;;;11.20;7.93;;;;;;;;;;5008122;28;20641;-73
2021/08/21 10:47:45;;;;;;;14.65;6.72;;;;;;;;;;4995430;28;20222;-74
2021/08/21 10:50:13;;;;;;;11.07;7.55;;;;;;;;;;5006660;28;20210;-73
2021/08/21 10:52:52;;;;;;;11.65;7.85;;;;;;;;;;5008728;28;20685;-72
2021/08/21 10:55:36;;;;;;;11.68;8.43;;;;;;;;;;5004817;28;20222;-73
2021/08/21 10:58:20;;;;;;;10.68;8.18;;;;;;;;;;4996033;28;20256;-73
2021/08/21 11:00:50;;;;;;;10.60;7.20;;;;;;;;;;5006292;28;20193;-72
2021/08/21 11:03:37;;;;;;;12.35;8.20;;;;;;;;;;4998560;28;20277;-71
2021/08/21 11:06:13;;;;;;;12.30;9.00;;;;;;;;;;5002982;28;20333;-72
2021/08/21 11:08:38;;;;;;;10.77;9.30;;;;;;;;;;4999242;28;20186;-71
2021/08/21 11:11:10;;;;;;;16.90;9.05;;;;;;;;;;5019079;28;20221;-71
2021/08/21 11:13:48;;;;;;;12.25;10.05;;;;;;;;;;5001142;28;20211;-72
2021/08/21 11:16:14;;;;;;;14.20;10.73;;;;;;;;;;5005972;28;20196;-71
2021/08/21 11:18:47;;;;;;;15.70;9.98;;;;;;;;;;4997578;28;20272;-70
2021/08/21 11:21:34;;;;;;;13.15;10.85;;;;;;;;;;5005524;28;20204;-70
2021/08/21 11:24:00;;;;;;;14.20;11.93;;;;;;;;;;4997796;28;20214;-70
2021/08/21 11:26:25;;;;;;;14.15;12.73;;;;;;;;;;5004655;28;20273;-70
2021/08/21 11:29:10;;;;;;;13.73;12.23;;;;;;;;;;4996519;28;20194;-70
2021/08/21 11:32:00;;;;;;;13.75;12.35;;;;;;;;;;5008823;28;20194;-69
2021/08/21 11:34:34;;;;;;;11.93;10.57;;;;;;;;;;5004151;28;20326;-69
2021/08/21 11:37:04;;;;;;;13.60;10.13;;;;;;;;;;5002361;28;20179;-69
2021/08/21 11:39:30;;;;;;;12.05;9.82;;;;;;;;;;5001274;28;20249;-69
2021/08/21 11:41:56;;;;;;;14.65;13.13;;;;;;;;;;5007249;28;20627;-71
2021/08/21 11:44:31;;;;;;;13.85;11.57;;;;;;;;;;5000208;28;20277;-70
2021/08/21 11:47:09;;;;;;;13.93;12.10;;;;;;;;;;5004188;28;20193;-70
2021/08/21 11:49:38;;;;;;;13.45;12.02;;;;;;;;;;4997779;28;20178;-69
2021/08/21 11:52:05;;;;;;;13.27;11.98;;;;;;;;;;5005443;28;20694;-69
2021/08/21 11:54:31;;;;;;;13.82;12.43;;;;;;;;;;4998437;28;20210;-69
2021/08/21 11:57:03;;;;;;;15.35;13.50;;;;;;;;;;5000509;28;20710;-69
2021/08/21 11:59:29;;;;;;;13.18;11.82;;;;;;;;;;5005606;28;20223;-70
2021/08/21 12:02:05;;;;;;;13.95;11.23;;;;;;;;;;4995157;28;20963;-70
2021/08/21 12:04:32;;;;;;;13.43;10.70;;;;;;;;;;5004463;28;20214;-70
2021/08/21 12:06:58;;;;;;;13.02;10.75;;;;;;;;;;4994915;28;20760;-70
2021/08/21 12:09:24;;;;;;;11.30;10.20;;;;;;;;;;5002153;28;20198;-70
2021/08/21 12:11:51;;;;;;;11.65;10.43;;;;;;;;;;4992552;28;20183;-70
2021/08/21 12:14:20;;;;;;;14.27;9.40;;;;;;;;;;5008658;28;20753;-70
2021/08/21 12:16:48;;;;;;;9.18;8.23;;;;;;;;;;4994858;28;20202;-70
2021/08/21 12:19:14;;;;;;;13.68;11.77;;;;;;;;;;5003021;28;20697;-70
2021/08/21 12:21:40;;;;;;;10.95;9.73;;;;;;;;;;4996984;28;20566;-70
2021/08/21 12:24:11;;;;;;;10.23;9.10;;;;;;;;;;5006354;28;20179;-69
2021/08/21 12:26:44;;;;;;;10.25;7.00;;;;;;;;;;4993926;28;20525;-70
2021/08/21 12:29:39;;;;;;;10.27;7.78;;;;;;;;;;5003285;28;20670;-70
2021/08/21 12:32:04;;;;;;;8.18;7.28;;;;;;;;;;4991999;28;20693;-70
2021/08/21 12:34:30;;;;;;;8.27;6.30;;;;;;;;;;5005043;28;20282;-70
2021/08/21 12:37:03;;;;;;;8.02;6.25;;;;;;;;;;4997803;28;20183;-70
2021/08/21 12:39:30;;;;;;;6.78;5.95;;;;;;;;;;5010373;28;20205;-70
2021/08/21 12:42:00;;;;;;;8.27;6.63;;;;;;;;;;4996207;28;20306;-70
2021/08/21 12:44:42;;;;;;;8.07;7.20;;;;;;;;;;4999110;28;20191;-70
2021/08/21 12:47:20;;;;;;;10.48;6.63;;;;;;;;;;4996749;28;20638;-71
2021/08/21 12:49:50;;;;;;;8.77;7.07;;;;;;;;;;5004294;28;20186;-71
2021/08/21 12:52:21;;;;;;;11.38;8.93;;;;;;;;;;5004111;28;20542;-70
2021/08/21 12:54:56;;;;;;;12.32;6.90;;;;;;;;;;5003773;28;20320;-70
2021/08/21 12:57:21;;;;;;;9.98;6.38;;;;;;;;;;5012710;28;20229;-72
2021/08/21 12:59:54;;;;;;;10.43;6.43;;;;;;;;;;4992086;28;20297;-72
2021/08/21 13:02:20;;;;;;;9.10;6.28;;;;;;;;;;5000521;28;20670;-71
2021/08/21 13:04:59;;;;;;;8.45;6.60;;;;;;;;;;4988693;28;20222;-70
2021/08/21 13:07:47;;;;;;;23.15;9.40;;;;;;;;;;4997232;28;20680;-70
2021/08/21 13:10:15;;;;;;;5.78;4.95;;;;;;;;;;5005162;28;20335;-70
2021/08/21 13:12:43;;;;;;;6.65;5.40;;;;;;;;;;5002372;28;20278;-70
2021/08/21 13:15:10;;;;;;;10.80;5.35;;;;;;;;;;4993039;28;20659;-71
2021/08/21 13:17:36;;;;;;;9.02;6.53;;;;;;;;;;5004648;28;20182;-70
2021/08/21 13:20:02;;;;;;;7.38;5.60;;;;;;;;;;4993489;28;20673;-70
2021/08/21 13:22:29;;;;;;;6.45;4.85;;;;;;;;;;5004201;28;20191;-70
2021/08/21 13:24:55;;;;;;;5.93;4.80;;;;;;;;;;4992139;28;20186;-70
2021/08/21 13:27:21;;;;;;;4.72;3.63;;;;;;;;;;5002681;28;20325;-70
2021/08/21 13:29:46;;;;;;;6.55;4.60;;;;;;;;;;4993360;28;20187;-71
2021/08/21 13:32:11;;;;;;;6.97;4.63;;;;;;;;;;5002555;28;20178;-70
2021/08/21 13:34:37;;;;;;;6.97;5.40;;;;;;;;;;4994699;28;20229;-70
2021/08/21 13:37:04;;;;;;;6.25;4.60;;;;;;;;;;5006474;28;20254;-70
2021/08/21 13:39:30;;;;;;;8.35;4.40;;;;;;;;;;5001769;28;20224;-70
2021/08/21 13:41:55;;;;;;;5.05;4.35;;;;;;;;;;5002514;28;20182;-70
2021/08/21 13:44:20;;;;;;;4.82;4.32;;;;;;;;;;5003504;28;20671;-70
2021/08/21 13:46:46;;;;;;;6.60;4.80;;;;;;;;;;4996257;28;20206;-71
2021/08/21 13:49:12;;;;;;;6.00;5.00;;;;;;;;;;5002236;28;20240;-71
2021/08/21 13:51:39;;;;;;;6.45;5.13;;;;;;;;;;4995187;28;20554;-71
2021/08/21 13:54:05;;;;;;;6.97;5.75;;;;;;;;;;5001490;28;20211;-71
2021/08/21 13:56:32;;;;;;;7.97;5.70;;;;;;;;;;4993298;28;20249;-71
2021/08/21 13:58:57;;;;;;;7.55;6.50;;;;;;;;;;5002850;28;20218;-70
2021/08/21 14:01:22;;;;;;;7.38;6.28;;;;;;;;;;4992002;28;20656;-71
2021/08/21 14:03:48;;;;;;;7.28;6.20;;;;;;;;;;5002451;28;20219;-70
2021/08/21 14:06:13;;;;;;;9.50;7.07;;;;;;;;;;4991104;28;20522;-70
2021/08/21 14:08:38;;;;;;;9.23;7.05;;;;;;;;;;5012327;28;20178;-71
2021/08/21 14:11:04;;;;;;;8.23;7.43;;;;;;;;;;4310046;28;10000896;-70
2021/08/21 14:13:30;;;;;;;7.80;7.00;;;;;;;;;;4990436;28;20187;-71
2021/08/21 14:15:55;;;;;;;9.48;7.60;;;;;;;;;;5005449;28;20699;-71
2021/08/21 14:18:20;;;;;;;9.32;6.72;;;;;;;;;;4998682;28;20821;-71
2021/08/21 14:20:46;;;;;;;9.07;6.35;;;;;;;;;;5007796;28;20182;-70
2021/08/21 14:23:11;;;;;;;10.80;7.30;;;;;;;;;;4993408;28;20191;-70